Portada
METAR-TAF:

METAR-TAF

Aeropuertos :

Monroe Municipal Airport

Monroe, Wisconsin, Estados Unidos

latitud: 42-36-54N, longitud: 089-35-27W, altitud: 331 m

Observación

El informe se hizo hace 29 minutos, a las 19:15 UTC
Viento 6 kt del sur-suroeste
Temperatura 26°C
Humedad 79%
Presión 1023 hPa
Visibilidad: 16.1 km
Nubes dispersas a una altura de 2800 ft
Nubes dispersas a una altura de 3900 ft
Nubes dispersas a una altura de 5500 ft

METAR: KEFT 191915Z AUTO 21006KT 10SM SCT028 SCT039 SCT055 26/22 A3020 RMK AO2 T02600218

Hora: 14:44 (19:44 UTC)


TAF: falta

Observaciones y pronósticos meteorológicos de más de 4000 aeropuertos (mensajes METAR y TAF).

Los puntos amarillos y rojos representan las estaciones disponibles.

Ponga el ratón en el punto deseado para ver el nombre de la estación.

Haga clic para ver las observaciones y los pronósticos meteorológicos.

Para cambiar el mapa : haga clic en los botones verdes con una cruz de color negro para hacer un zoom, en el botón verde con un guión para alejar o en las flechas verdes para mapas adyacentes.


METAR-TAF: